Time;durP1;ratioP1;P1;durP2;ratioP2;P2;SDS_P1;SDS_P2;PMS_P1;PMS_P2;Temp;Humidity;BMP_temperature;BMP_pressure;BME280_temperature;BME280_humidity;BME280_pressure;Samples;Min_cycle;Max_cycle;Signal;HPM_P1;HPM_P2
2022/10/06 00:00:09;;;;;;;19.67;11.75;;;;;;;10.28;86.82;100686.08;1660717;86;28146;-68
2022/10/06 00:02:37;;;;;;;22.90;10.60;;;;;;;10.25;87.02;100675.06;1659121;85;25679;-68
2022/10/06 00:05:04;;;;;;;16.85;9.90;;;;;;;10.22;87.17;100677.80;1656787;86;25558;-68
2022/10/06 00:07:37;;;;;;;15.78;10.45;;;;;;;10.20;87.18;100681.35;1655571;86;25456;-68
2022/10/06 00:10:06;;;;;;;17.70;10.80;;;;;;;10.17;87.48;100679.23;1654297;86;25854;-68
2022/10/06 00:12:42;;;;;;;20.00;9.98;;;;;;;10.15;87.41;100681.44;1656872;86;28100;-68
2022/10/06 00:15:12;;;;;;;14.58;9.83;;;;;;;10.12;87.42;100682.02;1649963;86;25742;-68
2022/10/06 00:17:39;;;;;;;20.37;10.58;;;;;;;10.08;87.50;100683.73;1658204;86;25739;-67
2022/10/06 00:20:08;;;;;;;15.13;9.33;;;;;;;10.05;87.88;100678.91;1661109;85;25943;-67
2022/10/06 00:22:37;;;;;;;25.55;10.90;;;;;;;10.01;87.87;100670.59;1661298;84;25724;-67
2022/10/06 00:25:06;;;;;;;17.42;10.55;;;;;;;9.99;87.92;100675.47;1647551;86;27394;-67
2022/10/06 00:27:41;;;;;;;15.80;9.95;;;;;;;9.98;87.91;100676.58;1676041;84;25608;-69
2022/10/06 00:30:13;;;;;;;17.27;9.05;;;;;;;9.95;88.12;100676.38;1687100;84;25776;-69
2022/10/06 00:32:39;;;;;;;17.80;9.58;;;;;;;9.93;88.24;100679.89;1686687;84;26564;-69
2022/10/06 00:35:08;;;;;;;16.80;9.50;;;;;;;9.89;88.27;100680.51;1701059;84;25470;-69
2022/10/06 00:37:37;;;;;;;19.95;10.10;;;;;;;9.86;88.12;100684.34;1701798;83;27363;-69
2022/10/06 00:40:08;;;;;;;14.98;9.78;;;;;;;9.84;88.17;100687.87;1667087;84;25641;-69
2022/10/06 00:42:33;;;;;;;19.50;10.58;;;;;;;9.79;88.45;100677.97;1666328;84;25455;-68
2022/10/06 00:45:03;;;;;;;18.98;10.60;;;;;;;9.79;88.26;100681.20;1689450;84;25992;-69
2022/10/06 00:47:32;;;;;;;18.95;10.10;;;;;;;9.77;88.73;100684.75;1687928;84;25461;-68
2022/10/06 00:50:01;;;;;;;15.60;10.20;;;;;;;9.72;88.83;100681.04;1692390;84;27370;-69
2022/10/06 00:52:30;;;;;;;19.80;9.55;;;;;;;9.70;88.78;100670.25;1692155;84;27222;-68
2022/10/06 00:54:59;;;;;;;17.87;9.75;;;;;;;9.68;88.57;100671.89;1692369;84;25385;-68
2022/10/06 00:57:27;;;;;;;16.55;9.50;;;;;;;9.66;89.23;100672.75;1692274;84;26011;-69
2022/10/06 00:59:53;;;;;;;17.70;9.43;;;;;;;9.64;89.09;100673.59;1692183;83;25687;-69
2022/10/06 01:02:27;;;;;;;14.73;9.13;;;;;;;9.62;89.59;100675.79;1692160;84;27341;-68
2022/10/06 01:04:57;;;;;;;18.85;9.53;;;;;;;9.62;89.52;100672.27;1692099;83;25664;-69
2022/10/06 01:07:27;;;;;;;14.65;9.05;;;;;;;9.61;89.58;100675.52;1692131;84;25809;-68
2022/10/06 01:09:56;;;;;;;17.95;9.68;;;;;;;9.58;89.82;100668.00;1692170;84;26750;-67
2022/10/06 01:12:24;;;;;;;15.40;9.13;;;;;;;9.56;89.60;100671.55;1688609;84;25414;-67
2022/10/06 01:14:51;;;;;;;13.70;9.10;;;;;;;9.55;89.74;100669.93;1690194;84;27401;-67
2022/10/06 01:17:43;;;;;;;14.78;8.60;;;;;;;9.54;89.67;100675.09;1686072;84;25633;-67
2022/10/06 01:20:14;;;;;;;14.60;8.73;;;;;;;9.52;90.57;100671.33;1688920;84;25704;-67
2022/10/06 01:22:45;;;;;;;15.48;9.20;;;;;;;9.50;90.15;100667.30;1664466;85;26119;-68
2022/10/06 01:25:15;;;;;;;15.75;8.40;;;;;;;9.49;90.55;100661.11;1687736;84;25462;-67
2022/10/06 01:27:46;;;;;;;13.48;8.10;;;;;;;9.48;90.67;100662.75;1689400;84;27693;-68
2022/10/06 01:30:16;;;;;;;18.40;8.40;;;;;;;9.47;90.72;100662.52;1689382;84;25582;-68
2022/10/06 01:32:45;;;;;;;16.07;9.15;;;;;;;9.46;90.78;100657.64;1661672;85;25484;-69
2022/10/06 01:35:11;;;;;;;15.25;8.68;;;;;;;9.45;90.62;100657.41;1680134;84;25980;-69
2022/10/06 01:37:37;;;;;;;11.30;7.92;;;;;;;9.45;90.76;100649.83;1688820;84;25681;-69
2022/10/06 01:40:05;;;;;;;16.42;8.60;;;;;;;9.45;90.70;100652.00;1688247;84;29505;-69
2022/10/06 01:42:32;;;;;;;15.65;8.38;;;;;;;9.43;90.67;100645.27;1683269;85;25705;-69
2022/10/06 01:44:58;;;;;;;20.72;8.68;;;;;;;9.42;91.07;100645.83;1683735;84;25567;-68
2022/10/06 01:47:25;;;;;;;19.95;9.93;;;;;;;9.41;91.01;100638.81;1687456;83;25934;-67
2022/10/06 01:49:51;;;;;;;14.20;8.60;;;;;;;9.41;91.05;100646.91;1688175;84;25419;-67
2022/10/06 01:52:18;;;;;;;17.98;9.18;;;;;;;9.41;91.03;100646.91;1689018;84;27302;-67
2022/10/06 01:54:45;;;;;;;18.20;9.40;;;;;;;9.39;91.24;100640.22;1689817;84;25436;-67
2022/10/06 01:57:11;;;;;;;12.50;8.33;;;;;;;9.39;91.33;100646.97;1688768;83;25408;-67
2022/10/06 01:59:37;;;;;;;13.55;7.72;;;;;;;9.38;91.73;100644.00;1690816;83;34728;-67
2022/10/06 02:02:04;;;;;;;12.43;8.25;;;;;;;9.37;91.51;100634.31;1693090;84;26311;-67
2022/10/06 02:04:30;;;;;;;16.60;8.70;;;;;;;9.37;91.57;100647.25;1691748;84;27325;-67
2022/10/06 02:06:56;;;;;;;13.55;7.75;;;;;;;9.37;91.79;100646.46;1694598;84;25682;-67
2022/10/06 02:09:22;;;;;;;15.23;8.53;;;;;;;9.37;91.69;100641.06;1693937;84;29595;-67
2022/10/06 02:11:49;;;;;;;13.45;7.72;;;;;;;9.35;91.64;100647.55;1696023;83;28116;-68
2022/10/06 02:14:16;;;;;;;12.80;8.80;;;;;;;9.34;91.65;100642.44;1700477;83;25401;-67
2022/10/06 02:16:44;;;;;;;15.60;9.13;;;;;;;9.33;91.77;100640.81;1694730;84;27320;-67
2022/10/06 02:19:11;;;;;;;12.55;8.60;;;;;;;9.31;91.60;100645.70;1694713;83;25493;-67
2022/10/06 02:21:37;;;;;;;13.28;7.75;;;;;;;9.30;91.77;100638.17;1676907;84;25704;-68
2022/10/06 02:24:04;;;;;;;11.57;8.38;;;;;;;9.31;92.39;100647.88;1691455;83;25971;-69
2022/10/06 02:26:31;;;;;;;14.85;8.00;;;;;;;9.30;92.07;100644.13;1687696;83;25443;-67
2022/10/06 02:28:57;;;;;;;12.82;7.87;;;;;;;9.31;92.43;100645.70;1689891;83;27359;-67
2022/10/06 02:31:24;;;;;;;16.50;8.38;;;;;;;9.30;92.26;100645.47;1690396;84;25720;-68
2022/10/06 02:33:50;;;;;;;16.40;7.55;;;;;;;9.30;92.21;100646.82;1688868;84;25622;-69
2022/10/06 02:36:17;;;;;;;12.50;7.62;;;;;;;9.29;92.43;100655.44;1688254;84;28178;-69
2022/10/06 02:38:43;;;;;;;12.37;7.05;;;;;;;9.28;92.24;100653.86;1684504;83;25279;-69
2022/10/06 02:41:10;;;;;;;16.40;8.00;;;;;;;9.27;92.12;100654.14;1683041;84;27424;-69
2022/10/06 02:43:37;;;;;;;13.50;7.78;;;;;;;9.25;92.28;100651.73;1686856;84;25545;-69
2022/10/06 02:46:07;;;;;;;15.75;8.73;;;;;;;9.26;92.38;100656.58;1686246;84;25661;-68
2022/10/06 02:48:34;;;;;;;11.83;7.62;;;;;;;9.26;92.42;100652.53;1686234;82;25929;-67
2022/10/06 02:51:07;;;;;;;14.80;9.78;;;;;;;9.25;92.45;100653.09;1689045;84;25639;-67
2022/10/06 02:53:33;;;;;;;14.33;7.72;;;;;;;9.25;92.69;100657.13;1686989;84;28033;-68
2022/10/06 02:56:09;;;;;;;16.65;9.78;;;;;;;9.24;92.58;100648.77;1690801;84;25788;-67
2022/10/06 02:58:41;;;;;;;11.83;7.72;;;;;;;9.23;92.53;100651.23;1685314;84;25449;-67
2022/10/06 03:01:12;;;;;;;13.30;7.53;;;;;;;9.22;92.50;100656.36;1694623;83;28187;-66
2022/10/06 03:03:39;;;;;;;14.20;8.28;;;;;;;9.20;92.53;100647.75;1692868;83;25628;-67
2022/10/06 03:06:25;;;;;;;14.20;7.78;;;;;;;9.19;92.56;100654.23;1690959;84;27324;-69
2022/10/06 03:09:00;;;;;;;11.65;9.05;;;;;;;9.20;92.65;100659.11;1691329;83;25462;-67
2022/10/06 03:11:29;;;;;;;12.50;7.45;;;;;;;9.18;93.37;100655.34;1694489;84;25221;-67
2022/10/06 03:13:56;;;;;;;12.10;8.05;;;;;;;9.16;92.96;100661.03;1690357;83;26606;-67
2022/10/06 03:16:32;;;;;;;13.55;8.20;;;;;;;9.16;93.02;100665.08;1693161;83;25715;-67
2022/10/06 03:18:59;;;;;;;12.00;7.08;;;;;;;9.15;92.95;100664.81;1691296;83;27277;-66
2022/10/06 03:21:30;;;;;;;13.20;7.70;;;;;;;9.13;92.80;100666.21;1691031;84;25643;-67
2022/10/06 03:23:58;;;;;;;15.68;8.65;;;;;;;9.13;92.80;100669.70;1694758;83;25460;-66
2022/10/06 03:26:32;;;;;;;15.10;8.53;;;;;;;9.11;92.76;100665.15;1694597;84;25939;-66
2022/10/06 03:29:01;;;;;;;14.68;8.75;;;;;;;9.10;92.87;100660.83;1692774;83;25715;-68
2022/10/06 03:31:28;;;;;;;13.78;8.08;;;;;;;9.10;93.04;100667.58;1694182;84;27542;-68
2022/10/06 03:33:55;;;;;;;11.97;8.68;;;;;;;9.07;92.98;100670.84;1694556;83;25755;-68
2022/10/06 03:36:25;;;;;;;12.95;7.45;;;;;;;9.07;93.04;100670.84;1690693;83;25633;-68
2022/10/06 03:38:51;;;;;;;13.95;7.42;;;;;;;9.06;93.09;100671.13;1694835;83;25991;-68
2022/10/06 03:41:24;;;;;;;12.23;7.60;;;;;;;9.07;93.19;100680.84;1691972;84;25399;-68
2022/10/06 03:43:52;;;;;;;12.28;8.18;;;;;;;9.05;93.24;100675.73;1686601;84;26848;-69
2022/10/06 03:46:23;;;;;;;11.60;8.88;;;;;;;9.03;93.20;100674.44;1686231;84;25647;-69
2022/10/06 03:48:51;;;;;;;12.78;9.03;;;;;;;9.02;93.17;100676.31;1702120;83;25540;-69
2022/10/06 03:51:24;;;;;;;13.47;8.63;;;;;;;9.02;93.11;100682.27;1704238;83;26626;-68
2022/10/06 03:53:52;;;;;;;11.90;6.53;;;;;;;8.99;93.30;100679.61;1703467;83;25479;-68
2022/10/06 03:56:31;;;;;;;9.70;6.95;;;;;;;8.98;93.34;100674.73;1634949;86;27964;-68
2022/10/06 03:59:07;;;;;;;14.45;7.42;;;;;;;8.97;93.75;100679.07;1634889;86;25515;-68
2022/10/06 04:01:41;;;;;;;12.65;7.53;;;;;;;8.96;93.70;100679.62;1634979;86;25529;-67
2022/10/06 04:06:56;;;;;;;10.50;6.85;;;;;;;8.94;93.57;100690.47;1682459;84;25687;-69
2022/10/06 04:09:22;;;;;;;11.10;7.30;;;;;;;8.92;94.01;100686.70;1682282;85;28587;-69
2022/10/06 04:11:48;;;;;;;13.55;7.55;;;;;;;8.92;94.07;100693.45;1682267;85;33541;-67
2022/10/06 04:14:15;;;;;;;13.65;7.05;;;;;;;8.89;94.03;100689.97;1682319;85;25735;-67
2022/10/06 04:16:48;;;;;;;10.23;7.08;;;;;;;8.89;94.16;100683.78;1682290;84;25907;-69
2022/10/06 04:19:16;;;;;;;19.70;7.60;;;;;;;8.90;94.42;100690.20;1682365;85;25675;-67
2022/10/06 04:21:46;;;;;;;12.47;7.60;;;;;;;8.90;94.40;100688.06;1682311;85;28005;-67
2022/10/06 04:24:13;;;;;;;13.88;6.80;;;;;;;8.90;94.50;100692.11;1682279;85;26455;-67
2022/10/06 04:26:47;;;;;;;11.45;7.25;;;;;;;8.90;94.48;100689.41;1682086;85;25646;-68
2022/10/06 04:29:14;;;;;;;11.73;6.62;;;;;;;8.89;94.52;100692.67;1682043;85;26024;-68
2022/10/06 04:31:42;;;;;;;10.03;7.03;;;;;;;8.88;94.59;100693.75;1723777;82;25454;-68
2022/10/06 04:34:12;;;;;;;11.70;7.33;;;;;;;8.91;94.71;100704.52;1743060;82;27333;-69
2022/10/06 04:36:40;;;;;;;10.58;6.60;;;;;;;8.90;94.78;100704.25;1742976;82;25545;-69
2022/10/06 04:39:10;;;;;;;13.15;7.10;;;;;;;8.90;94.71;100707.75;1743045;82;25456;-69
2022/10/06 04:41:40;;;;;;;10.35;6.60;;;;;;;8.90;94.68;100702.91;1743020;82;26033;-68
2022/10/06 04:44:07;;;;;;;11.38;6.50;;;;;;;8.90;94.61;100706.39;1743175;82;25438;-68
2022/10/06 04:46:34;;;;;;;14.07;6.72;;;;;;;8.89;94.59;100707.50;1743076;82;27323;-68
2022/10/06 04:49:01;;;;;;;11.30;6.78;;;;;;;8.90;94.39;100713.70;1742807;81;25856;-69
2022/10/06 04:51:28;;;;;;;13.72;7.12;;;;;;;8.89;94.43;100714.80;1743085;82;25605;-68
2022/10/06 04:53:55;;;;;;;11.10;7.47;;;;;;;8.89;94.46;100716.15;1742977;82;26494;-68
2022/10/06 04:56:25;;;;;;;10.95;6.30;;;;;;;8.88;94.60;100720.72;1743065;82;25636;-68
2022/10/06 04:58:55;;;;;;;11.75;6.75;;;;;;;8.86;94.57;100724.26;1743032;82;27261;-69
2022/10/06 05:01:26;;;;;;;11.63;7.95;;;;;;;8.87;94.68;100727.75;1734953;82;25615;-69
2022/10/06 05:03:56;;;;;;;15.28;7.60;;;;;;;8.86;94.64;100724.81;1692787;84;25399;-69
2022/10/06 05:06:30;;;;;;;10.88;6.85;;;;;;;8.85;94.98;100730.73;1731524;81;25917;-69
2022/10/06 05:09:00;;;;;;;11.03;7.22;;;;;;;8.86;95.04;100739.09;1723653;83;25755;-68
2022/10/06 05:11:30;;;;;;;12.45;7.55;;;;;;;8.87;95.03;100739.89;1724959;81;28199;-68
2022/10/06 05:13:59;;;;;;;7.85;6.12;;;;;;;8.86;95.21;100738.30;1726805;82;25544;-68
2022/10/06 05:16:27;;;;;;;9.55;6.80;;;;;;;8.89;95.32;100749.31;1726926;81;25674;-68
2022/10/06 05:18:54;;;;;;;9.60;6.37;;;;;;;8.90;95.56;100743.38;1698225;83;26002;-69
2022/10/06 05:21:25;;;;;;;9.68;6.62;;;;;;;8.91;95.83;100748.48;1726939;81;25511;-68
2022/10/06 05:23:52;;;;;;;16.30;11.00;;;;;;;8.94;95.90;100753.31;1726409;83;28043;-68
2022/10/06 05:26:23;;;;;;;11.78;7.15;;;;;;;8.96;96.00;100757.87;1726847;81;25606;-68
2022/10/06 05:28:50;;;;;;;12.58;6.70;;;;;;;9.00;95.94;100760.00;1726868;83;25483;-69
2022/10/06 05:31:23;;;;;;;12.70;7.47;;;;;;;9.02;95.94;100755.11;1726862;82;26183;-69
2022/10/06 05:33:49;;;;;;;12.47;6.45;;;;;;;9.05;96.03;100755.90;1725754;81;25538;-69
2022/10/06 05:36:20;;;;;;;15.40;7.60;;;;;;;9.10;96.42;100757.19;1726859;82;27444;-72
2022/10/06 05:38:47;;;;;;;12.35;6.75;;;;;;;9.15;96.67;100754.43;1726747;82;25614;-72
2022/10/06 05:41:23;;;;;;;11.65;6.80;;;;;;;9.21;96.81;100756.52;1732068;81;25612;-72
2022/10/06 05:43:50;;;;;;;12.28;7.25;;;;;;;9.27;96.83;100763.47;1726897;81;26244;-70
2022/10/06 05:46:23;;;;;;;15.20;6.92;;;;;;;9.31;96.83;100768.53;1727083;82;25650;-65
2022/10/06 05:48:56;;;;;;;10.68;7.55;;;;;;;9.38;97.05;100776.29;1726860;81;27424;-68
2022/10/06 05:51:27;;;;;;;16.67;7.08;;;;;;;9.46;97.33;100772.95;1735674;81;25796;-67
2022/10/06 05:53:54;;;;;;;11.48;6.47;;;;;;;9.56;97.86;100780.13;1738588;81;25554;-70
2022/10/06 05:56:24;;;;;;;11.57;6.65;;;;;;;9.64;97.71;100781.62;1726900;83;25902;-69
2022/10/06 05:58:53;;;;;;;11.73;6.58;;;;;;;9.72;97.73;100782.86;1726786;83;25718;-70
2022/10/06 06:01:25;;;;;;;9.95;6.50;;;;;;;9.85;97.71;100788.11;1726983;83;27392;-70
2022/10/06 06:04:02;;;;;;;11.22;7.15;;;;;;;9.96;97.67;100798.21;1725747;83;25726;-71
2022/10/06 06:06:44;;;;;;;13.43;7.72;;;;;;;10.03;97.64;100792.70;1728522;81;25912;-69
2022/10/06 06:09:17;;;;;;;9.23;6.72;;;;;;;10.14;97.63;100801.46;1716668;82;25933;-69
2022/10/06 06:11:47;;;;;;;12.47;7.45;;;;;;;10.28;97.77;100806.39;1729449;82;26043;-69
2022/10/06 06:14:16;;;;;;;14.35;7.12;;;;;;;10.43;97.86;100813.47;1736676;82;27341;-69
2022/10/06 06:16:44;;;;;;;12.63;7.22;;;;;;;10.57;97.73;100819.48;1731514;81;26262;-70
2022/10/06 06:19:12;;;;;;;10.88;7.40;;;;;;;10.74;97.83;100813.52;1732339;82;25560;-70
2022/10/06 06:21:39;;;;;;;9.50;6.83;;;;;;;10.92;98.17;100816.72;1731574;82;26471;-69
2022/10/06 06:24:06;;;;;;;11.03;6.67;;;;;;;11.15;98.25;100823.08;1730969;82;25739;-69
2022/10/06 06:26:36;;;;;;;10.20;6.78;;;;;;;11.40;99.39;100819.61;1730901;82;27510;-70
2022/10/06 06:29:23;;;;;;;12.95;6.60;;;;;;;11.64;98.78;100822.66;1710469;82;25923;-70
2022/10/06 06:31:49;;;;;;;14.28;8.65;;;;;;;11.93;98.33;100832.61;1710454;82;25913;-70
2022/10/06 06:34:16;;;;;;;10.55;7.10;;;;;;;12.22;98.93;100840.13;1709406;83;25897;-69
2022/10/06 06:36:45;;;;;;;13.05;6.12;;;;;;;12.52;99.50;100838.61;1710909;82;25817;-69
2022/10/06 06:39:13;;;;;;;11.68;5.92;;;;;;;12.81;98.60;100847.66;1711957;82;27398;-69
2022/10/06 06:41:44;;;;;;;13.28;6.40;;;;;;;13.12;97.86;100852.30;1712297;83;25439;-70
2022/10/06 06:44:10;;;;;;;18.00;6.10;;;;;;;13.38;96.94;100855.17;1712239;83;25599;-70
2022/10/06 06:46:38;;;;;;;9.80;6.12;;;;;;;13.71;97.02;100861.58;1712232;83;25924;-70
2022/10/06 06:49:06;;;;;;;10.28;6.08;;;;;;;14.06;96.12;100868.42;1711786;83;25593;-70
2022/10/06 06:51:42;;;;;;;9.55;5.37;;;;;;;14.27;94.05;100870.52;1712460;83;27307;-70
2022/10/06 06:54:11;;;;;;;7.85;5.28;;;;;;;14.45;93.10;100870.77;1725652;82;25680;-70
2022/10/06 06:56:39;;;;;;;12.23;6.45;;;;;;;14.60;92.07;100880.97;1732664;82;25469;-70
2022/10/06 06:59:10;;;;;;;9.93;5.25;;;;;;;14.75;91.59;100881.83;1732514;82;26444;-70
2022/10/06 07:01:44;;;;;;;8.80;7.37;;;;;;;14.83;89.86;100889.73;1732570;82;25452;-70
2022/10/06 07:04:13;;;;;;;9.48;8.18;;;;;;;14.85;88.92;100891.59;1732506;82;28016;-70
2022/10/06 07:06:41;;;;;;;7.95;5.20;;;;;;;14.84;88.14;100894.07;1732564;82;25744;-70
2022/10/06 07:09:09;;;;;;;9.30;8.35;;;;;;;14.82;87.77;100895.75;1732433;82;25448;-70
2022/10/06 07:11:38;;;;;;;11.05;9.88;;;;;;;14.80;87.14;100904.02;1732456;82;26449;-70
2022/10/06 07:14:11;;;;;;;9.28;6.00;;;;;;;14.79;87.19;100907.85;1732464;82;25400;-70
2022/10/06 07:25:06;;;;;;;9.25;6.37;;;;;;;14.70;85.41;100910.02;1732329;82;25914;-70
2022/10/06 07:27:42;;;;;;;6.85;5.12;;;;;;;14.66;85.68;100904.99;1734427;82;25872;-68
2022/10/06 07:30:17;;;;;;;10.80;8.08;;;;;;;14.67;85.82;100921.55;1714783;82;27339;-69
2022/10/06 07:32:41;;;;;;;13.93;12.60;;;;;;;14.71;86.26;100921.16;1734775;82;25525;-69
2022/10/06 07:35:08;;;;;;;8.73;5.75;;;;;;;14.76;86.13;100914.73;1758093;81;25465;-69
2022/10/06 07:37:35;;;;;;;8.18;6.33;;;;;;;14.81;85.48;100918.65;1758791;81;26506;-69
2022/10/06 07:40:04;;;;;;;7.45;6.05;;;;;;;14.84;85.47;100913.92;1758597;81;25379;-71
2022/10/06 07:42:46;;;;;;;11.18;6.35;;;;;;;14.90;85.65;100929.56;1735113;82;27296;-69
2022/10/06 07:47:45;;;;;;;10.35;7.75;;;;;;;15.04;84.83;100925.28;1635816;87;25446;-69
2022/10/06 07:50:11;;;;;;;6.97;6.00;;;;;;;15.10;84.51;100930.78;1635851;87;25984;-69
2022/10/06 07:52:38;;;;;;;10.90;5.97;;;;;;;15.15;84.17;100942.88;1635971;87;25450;-69
2022/10/06 07:55:05;;;;;;;10.78;7.37;;;;;;;15.20;84.12;100941.34;1635984;87;27318;-69
2022/10/06 07:57:34;;;;;;;11.03;6.87;;;;;;;15.24;83.68;100937.43;1635877;87;25461;-69
2022/10/06 08:00:04;;;;;;;15.48;14.20;;;;;;;15.27;83.27;100939.48;1635838;87;25557;-70
2022/10/06 08:02:30;;;;;;;16.70;14.33;;;;;;;15.28;83.45;100936.44;1635386;87;25898;-69
2022/10/06 08:04:56;;;;;;;9.98;6.37;;;;;;;15.29;83.15;100940.77;1616936;87;25379;-70
2022/10/06 08:07:22;;;;;;;10.53;7.97;;;;;;;15.32;82.94;100942.03;1593955;89;27403;-69
2022/10/06 08:09:49;;;;;;;12.07;6.30;;;;;;;15.31;82.56;100933.64;1589197;89;25739;-70
2022/10/06 08:12:33;;;;;;;18.75;9.40;;;;;;;15.30;82.28;100934.75;1626739;87;25673;-69
2022/10/06 08:15:01;;;;;;;18.45;16.85;;;;;;;15.28;82.48;100945.97;1620516;87;25957;-71
2022/10/06 08:17:29;;;;;;;17.00;6.50;;;;;;;15.29;82.45;100947.58;1627920;87;25512;-70
2022/10/06 08:19:55;;;;;;;7.15;5.95;;;;;;;15.36;82.93;100954.44;1740846;80;27998;-70
2022/10/06 08:22:26;;;;;;;14.18;7.55;;;;;;;15.40;82.67;100949.95;1747806;81;25573;-69
2022/10/06 08:24:49;;;;;;;10.40;5.72;;;;;;;15.44;82.56;100954.98;1701109;82;25506;-70
2022/10/06 08:27:15;;;;;;;9.23;6.17;;;;;;;15.49;82.50;100954.81;1699716;83;26660;-69
2022/10/06 08:29:41;;;;;;;8.25;6.58;;;;;;;15.53;82.54;100951.69;1722531;82;25417;-70
2022/10/06 08:32:07;;;;;;;14.78;5.03;;;;;;;15.58;82.47;100959.69;1725751;82;27320;-69
2022/10/06 08:34:35;;;;;;;8.03;4.50;;;;;;;15.63;81.99;100962.77;1734872;81;25480;-69
2022/10/06 08:37:02;;;;;;;6.87;6.10;;;;;;;15.73;81.79;100956.95;1726661;82;25528;-69
2022/10/06 08:39:29;;;;;;;9.53;7.28;;;;;;;15.93;82.07;100958.75;1734133;82;26505;-68
2022/10/06 08:41:56;;;;;;;9.18;6.28;;;;;;;16.34;83.37;100958.02;1720038;82;25381;-69
2022/10/06 08:44:31;;;;;;;8.10;4.72;;;;;;;16.73;81.82;100957.32;1720057;82;27379;-68
2022/10/06 08:47:12;;;;;;;9.13;4.72;;;;;;;17.26;82.81;100960.38;1720061;82;25444;-69
2022/10/06 08:49:43;;;;;;;9.60;4.95;;;;;;;18.10;82.19;100961.98;1700881;83;25506;-69
2022/10/06 08:52:25;;;;;;;8.13;4.62;;;;;;;18.72;78.76;100950.30;1720195;83;25916;-69
2022/10/06 08:55:25;;;;;;;6.75;4.53;;;;;;;19.35;79.13;100951.04;1720378;82;25444;-69
2022/10/06 08:58:39;;;;;;;6.53;4.42;;;;;;;20.17;75.86;100964.39;1720455;82;27305;-69
2022/10/06 09:01:19;;;;;;;7.97;4.15;;;;;;;20.89;74.99;100968.08;1720369;82;25660;-69
2022/10/06 09:03:47;;;;;;;9.10;4.53;;;;;;;21.53;72.76;100964.36;1720583;83;25071;-69
2022/10/06 09:06:40;;;;;;;6.05;4.00;;;;;;;21.95;71.04;100975.86;1722956;82;25992;-69
2022/10/06 09:09:30;;;;;;;12.82;4.42;;;;;;;22.44;69.94;100977.55;1741810;81;25470;-70
2022/10/06 09:12:17;;;;;;;8.45;3.60;;;;;;;22.90;67.60;100978.70;1732479;81;27321;-69
2022/10/06 09:14:48;;;;;;;9.83;4.35;;;;;;;23.54;68.25;100984.70;1729822;82;25762;-69
2022/10/06 09:17:25;;;;;;;8.10;3.70;;;;;;;23.81;65.19;100985.33;1719898;82;25393;-69
2022/10/06 09:20:19;;;;;;;6.42;3.77;;;;;;;23.96;63.16;100988.42;1718138;82;26449;-69
2022/10/06 09:22:48;;;;;;;8.93;5.03;;;;;;;23.81;62.30;100997.75;1697959;83;25470;-70
2022/10/06 09:25:26;;;;;;;10.13;4.58;;;;;;;23.46;60.86;101005.36;1704768;82;27348;-71
2022/10/06 09:27:58;;;;;;;8.40;4.65;;;;;;;23.08;60.17;101006.53;1714025;82;25574;-69
2022/10/06 09:30:26;;;;;;;6.42;4.10;;;;;;;22.74;60.83;101007.88;1725839;81;25392;-69
2022/10/06 09:32:59;;;;;;;6.75;3.75;;;;;;;22.46;60.52;101016.55;1726198;81;26525;-70
2022/10/06 09:35:28;;;;;;;5.67;4.10;;;;;;;22.08;59.97;101020.50;1725483;83;25507;-69
2022/10/06 09:38:03;;;;;;;10.63;4.55;;;;;;;21.75;60.52;101031.59;1725765;81;27101;-70
2022/10/06 09:40:48;;;;;;;6.42;4.05;;;;;;;21.52;61.35;101028.84;1725670;82;25470;-69
2022/10/06 09:43:24;;;;;;;7.72;4.03;;;;;;;21.40;62.28;101028.96;1727085;83;25424;-70
2022/10/06 09:45:53;;;;;;;10.45;4.08;;;;;;;21.39;62.96;101032.30;1726833;82;25918;-69
2022/10/06 09:48:23;;;;;;;9.33;4.40;;;;;;;21.40;63.31;101034.47;1727178;82;25406;-69
2022/10/06 09:51:17;;;;;;;5.67;3.92;;;;;;;21.33;62.98;101032.97;1726914;82;27287;-69
2022/10/06 09:54:09;;;;;;;6.53;4.22;;;;;;;21.55;63.35;101031.43;1640602;85;25548;-69
2022/10/06 09:56:32;;;;;;;6.45;4.33;;;;;;;22.15;64.72;101023.95;1583153;89;25519;-69
2022/10/06 09:59:00;;;;;;;7.97;4.60;;;;;;;22.99;64.90;101033.60;1582968;90;25986;-69
2022/10/06 10:01:29;;;;;;;6.60;4.20;;;;;;;23.60;62.81;101035.06;1583022;90;25573;-72
2022/10/06 10:04:01;;;;;;;7.75;5.53;;;;;;;23.80;59.47;101040.34;1583057;90;27959;-70
2022/10/06 10:06:30;;;;;;;12.20;4.25;;;;;;;24.00;60.41;101047.84;1582922;87;25561;-70
2022/10/06 10:09:21;;;;;;;7.10;4.53;;;;;;;24.21;59.47;101052.16;1583076;90;25441;-69
2022/10/06 10:12:28;;;;;;;6.25;3.95;;;;;;;24.27;58.90;101061.48;1582937;90;26690;-68
2022/10/06 10:15:00;;;;;;;6.80;4.00;;;;;;;24.38;57.64;101063.70;1583098;90;25669;-69
2022/10/06 10:17:50;;;;;;;6.90;4.30;;;;;;;24.01;56.61;101062.67;1583057;90;27994;-69
2022/10/06 10:20:33;;;;;;;10.15;4.42;;;;;;;23.73;56.38;101065.15;1583004;90;25497;-69
2022/10/06 10:23:10;;;;;;;8.93;3.92;;;;;;;23.42;56.29;101064.45;1581985;89;25573;-70
2022/10/06 10:26:13;;;;;;;7.53;3.67;;;;;;;23.11;56.64;101071.41;1580520;90;25935;-68
2022/10/06 10:29:07;;;;;;;6.30;4.75;;;;;;;22.89;57.53;101063.42;1588054;89;25616;-69
2022/10/06 10:32:14;;;;;;;8.95;4.00;;;;;;;22.68;57.15;101065.88;1643662;85;27900;-69
2022/10/06 10:35:02;;;;;;;7.30;4.33;;;;;;;22.49;58.12;101066.23;1601605;89;25638;-69
2022/10/06 10:37:51;;;;;;;9.98;5.03;;;;;;;22.51;59.18;101070.80;1592876;89;26019;-69
2022/10/06 10:40:53;;;;;;;7.47;3.72;;;;;;;22.46;57.71;101067.54;1599529;89;26665;-68
2022/10/06 10:43:37;;;;;;;5.78;3.70;;;;;;;22.06;57.81;101068.29;1567304;91;25627;-69
2022/10/06 10:46:11;;;;;;;9.53;7.25;;;;;;;21.80;58.51;101073.95;1541541;92;27340;-69
2022/10/06 10:48:42;;;;;;;7.65;5.65;;;;;;;21.67;58.97;101067.63;1556348;92;25545;-68
2022/10/06 10:51:37;;;;;;;8.10;3.67;;;;;;;21.56;59.27;101072.95;1556365;92;25553;-68
2022/10/06 10:54:12;;;;;;;9.65;4.25;;;;;;;21.45;59.43;101082.33;1535537;92;26141;-68
2022/10/06 10:56:38;;;;;;;7.00;3.60;;;;;;;21.30;59.66;101081.27;1554936;91;25651;-68
2022/10/06 10:59:29;;;;;;;6.42;3.65;;;;;;;21.18;60.04;101079.47;1555438;92;27356;-69
2022/10/06 11:02:00;;;;;;;7.92;3.72;;;;;;;21.02;60.04;101081.48;1551535;92;25979;-68
2022/10/06 11:04:27;;;;;;;7.95;4.12;;;;;;;20.76;60.00;101080.16;1582926;90;25573;-70
2022/10/06 11:07:05;;;;;;;7.72;3.70;;;;;;;20.55;60.24;101082.38;1650154;86;25969;-69
2022/10/06 11:10:06;;;;;;;6.62;3.90;;;;;;;20.41;60.56;101086.97;1662023;86;25671;-70
2022/10/06 11:12:59;;;;;;;6.12;3.85;;;;;;;20.22;60.99;101090.45;1710730;83;27298;-69
2022/10/06 11:15:59;;;;;;;9.33;3.70;;;;;;;19.98;61.51;101086.73;1712952;83;25493;-69
2022/10/06 11:18:49;;;;;;;5.42;4.10;;;;;;;19.76;61.98;101096.36;1700527;84;25590;-68
2022/10/06 11:21:20;;;;;;;5.72;3.58;;;;;;;19.58;62.55;101098.59;1691276;84;26509;-68
2022/10/06 11:24:00;;;;;;;8.40;3.70;;;;;;;19.47;63.05;101096.93;1681198;84;25614;-70
2022/10/06 11:27:07;;;;;;;6.28;3.80;;;;;;;19.40;63.44;101093.42;1687758;84;27430;-69
2022/10/06 11:29:54;;;;;;;9.15;4.20;;;;;;;19.35;63.95;101093.67;1680370;83;25901;-70
2022/10/06 11:32:28;;;;;;;8.70;3.52;;;;;;;19.31;64.33;101089.25;1690053;84;25511;-69
2022/10/06 11:34:55;;;;;;;5.92;3.67;;;;;;;19.23;64.43;101094.51;1662151;84;26003;-69
2022/10/06 11:37:43;;;;;;;12.15;4.33;;;;;;;19.19;64.87;101093.63;1671551;84;25534;-69
2022/10/06 11:40:41;;;;;;;9.03;3.83;;;;;;;19.18;65.09;101102.98;1672202;84;27525;-69
2022/10/06 11:43:34;;;;;;;8.27;3.77;;;;;;;19.24;65.47;101092.59;1652315;86;25500;-69
2022/10/06 11:46:29;;;;;;;3.83;3.42;;;;;;;19.32;65.58;101107.28;1639356;86;25624;-69
2022/10/06 11:49:32;;;;;;;5.15;3.40;;;;;;;19.31;65.51;101099.64;1651285;86;25987;-69
2022/10/06 11:52:12;;;;;;;5.97;3.70;;;;;;;19.45;66.47;101097.86;1633684;87;25598;-70
2022/10/06 11:54:55;;;;;;;5.03;3.20;;;;;;;19.81;65.62;101115.31;1688132;84;27338;-69
2022/10/06 11:57:30;;;;;;;4.42;2.83;;;;;;;20.12;66.12;101110.42;1705951;83;25714;-70
2022/10/06 12:00:16;;;;;;;6.60;2.98;;;;;;;20.59;65.77;101115.67;1710630;83;25849;-71
2022/10/06 12:02:45;;;;;;;5.60;3.27;;;;;;;20.86;64.45;101108.45;1696477;83;25962;-70